createdAt,value
2018-02-20T00:02:25.383Z,60.52
2018-02-20T00:04:54.171Z,61.16
2018-02-20T00:07:22.611Z,61.82
2018-02-20T00:09:51.123Z,61.55
2018-02-20T00:12:20.651Z,62.06
2018-02-20T00:14:49.084Z,61.93
2018-02-20T00:17:17.549Z,61.79
2018-02-20T00:19:46.035Z,61.64
2018-02-20T00:22:16.346Z,62.03
2018-02-20T00:24:45.026Z,61.42
2018-02-20T00:27:13.835Z,61.44
2018-02-20T00:29:42.281Z,60.91
2018-02-20T00:32:10.718Z,61.72
2018-02-20T00:34:40.369Z,60.70
2018-02-20T00:37:08.798Z,61.61
2018-02-20T00:39:38.005Z,61.33
2018-02-20T00:42:07.271Z,61.67
2018-02-20T00:44:35.711Z,62.37
2018-02-20T00:47:04.156Z,62.13
2018-02-20T00:49:33.604Z,62.25
2018-02-20T00:52:02.035Z,61.84
2018-02-20T00:54:31.246Z,62.14
2018-02-20T00:57:00.890Z,62.10
2018-02-20T00:59:29.324Z,61.40
2018-02-20T01:01:58.534Z,62.35
2018-02-20T01:04:27.969Z,61.70
2018-02-20T01:06:56.399Z,61.83
2018-02-20T01:09:25.635Z,62.29
2018-02-20T01:11:54.427Z,62.59
2018-02-20T01:14:22.858Z,61.83
2018-02-20T01:16:51.286Z,62.91
2018-02-20T01:19:19.827Z,62.53
2018-02-20T01:21:48.255Z,63.70
2018-02-20T01:24:16.691Z,63.51
2018-02-20T01:26:45.434Z,63.08
2018-02-20T01:29:13.873Z,63.59
2018-02-20T01:31:43.074Z,63.54
2018-02-20T01:34:12.307Z,62.43
2018-02-20T01:36:40.742Z,62.99
2018-02-20T01:39:09.955Z,62.20
2018-02-20T01:41:39.186Z,62.28
2018-02-20T01:44:07.626Z,62.29
2018-02-20T01:46:36.827Z,62.49
2018-02-20T01:49:06.067Z,62.49
2018-02-20T01:51:34.514Z,62.79
2018-02-20T01:54:02.947Z,63.15
2018-02-20T01:56:32.590Z,62.81
2018-02-20T01:59:01.914Z,62.55
2018-02-20T02:01:30.472Z,62.85
2018-02-20T02:03:59.895Z,62.67
2018-02-20T02:06:28.469Z,62.90
2018-02-20T02:08:57.039Z,61.79
2018-02-20T02:11:26.501Z,61.72
2018-02-20T02:13:55.058Z,61.86
2018-02-20T02:16:23.617Z,61.08
2018-02-20T02:18:52.987Z,61.38
2018-02-20T02:21:21.554Z,60.73
2018-02-20T02:23:50.175Z,60.50
2018-02-20T02:26:19.645Z,60.76
2018-02-20T02:28:48.228Z,60.76
2018-02-20T02:31:16.788Z,59.54
2018-02-20T02:33:45.411Z,60.09
2018-02-20T02:36:13.969Z,60.26
2018-02-20T02:38:42.526Z,60.64
2018-02-20T02:41:11.245Z,60.50
2018-02-20T02:43:39.808Z,60.55
2018-02-20T02:46:08.370Z,60.87
2018-02-20T02:48:37.402Z,60.52
2018-02-20T02:51:05.965Z,59.23
2018-02-20T02:53:34.525Z,60.27
2018-02-20T02:56:03.133Z,60.59
2018-02-20T02:58:31.695Z,60.07
2018-02-20T03:01:00.261Z,60.73
2018-02-20T03:03:30.604Z,59.93
2018-02-20T03:05:59.214Z,60.67
2018-02-20T03:08:27.764Z,60.75
2018-02-20T03:10:56.371Z,59.70
2018-02-20T03:13:24.927Z,60.79
2018-02-20T03:15:54.249Z,61.05
2018-02-20T03:18:23.165Z,60.27
2018-02-20T03:20:51.719Z,60.07
2018-02-20T03:23:20.277Z,61.01
2018-02-20T03:25:49.654Z,61.58
2018-02-20T03:28:18.220Z,60.88
2018-02-20T03:30:46.781Z,61.57
2018-02-20T03:33:15.587Z,60.55
2018-02-20T03:35:44.280Z,61.37
2018-02-20T03:38:12.837Z,60.90
2018-02-20T03:40:41.443Z,61.01
2018-02-20T03:43:10.001Z,60.19
2018-02-20T03:45:38.560Z,60.13
2018-02-20T03:48:07.953Z,60.69
2018-02-20T03:50:37.272Z,59.46
2018-02-20T03:53:05.830Z,59.96
2018-02-20T03:55:35.211Z,60.83
2018-02-20T03:58:04.601Z,61.19
2018-02-20T04:00:33.156Z,61.80
2018-02-20T04:03:01.771Z,60.92
2018-02-20T04:05:30.329Z,60.79
2018-02-20T04:07:58.888Z,61.37
2018-02-20T04:10:27.497Z,61.11
2018-02-20T04:12:56.063Z,61.18
2018-02-20T04:15:25.405Z,61.68
2018-02-20T04:17:54.373Z,60.58
2018-02-20T04:20:22.948Z,60.50
2018-02-20T04:22:51.506Z,61.27
2018-02-20T04:25:20.400Z,60.31
2018-02-20T04:27:49.631Z,61.03
2018-02-20T04:30:18.189Z,61.22
2018-02-20T04:32:46.795Z,61.79
2018-02-20T04:35:16.125Z,61.70
2018-02-20T04:37:45.450Z,60.81
2018-02-20T04:40:14.073Z,61.35
2018-02-20T04:42:43.396Z,60.88
2018-02-20T04:45:11.958Z,61.55
2018-02-20T04:47:40.657Z,61.04
2018-02-20T04:50:09.225Z,61.77
2018-02-20T04:52:37.776Z,60.99
2018-02-20T04:55:06.396Z,62.05
2018-02-20T04:57:34.944Z,62.81
2018-02-20T05:00:03.517Z,61.07
2018-02-20T05:02:32.924Z,61.79
2018-02-20T05:05:01.488Z,61.15
2018-02-20T05:07:30.850Z,61.06
2018-02-20T05:09:59.461Z,61.33
2018-02-20T05:12:28.020Z,60.34
2018-02-20T05:14:56.582Z,60.41
2018-02-20T05:17:25.209Z,61.08
2018-02-20T05:19:53.762Z,61.11
2018-02-20T05:22:22.317Z,60.87
2018-02-20T05:24:50.932Z,61.93
2018-02-20T05:27:19.487Z,62.72
2018-02-20T05:29:48.044Z,63.10
2018-02-20T05:32:17.408Z,62.60
2018-02-20T05:34:45.963Z,63.37
2018-02-20T05:37:15.289Z,62.85
2018-02-20T05:39:43.897Z,62.80
2018-02-20T05:42:12.453Z,63.22
2018-02-20T05:44:41.772Z,62.46
2018-02-20T05:47:11.368Z,62.90
2018-02-20T05:49:39.919Z,61.54
2018-02-20T05:52:09.244Z,61.48
2018-02-20T05:54:38.047Z,60.85
2018-02-20T05:57:06.620Z,61.57
2018-02-20T05:59:35.176Z,62.00
2018-02-20T06:02:03.877Z,61.92
2018-02-20T06:04:32.440Z,62.37
2018-02-20T06:07:01.765Z,62.15
2018-02-20T06:09:30.378Z,62.28
2018-02-20T06:11:58.956Z,63.71
2018-02-20T06:14:27.508Z,63.77
2018-02-20T06:16:56.121Z,62.44
2018-02-20T06:19:24.677Z,62.49
2018-02-20T06:21:53.226Z,62.89
2018-02-20T06:24:22.599Z,63.01
2018-02-20T06:26:51.160Z,63.17
2018-02-20T06:29:19.721Z,63.66
2018-02-20T06:31:49.329Z,62.40
2018-02-20T06:34:17.885Z,62.87
2018-02-20T06:36:46.446Z,63.99
2018-02-20T06:39:15.819Z,63.09
2018-02-20T06:41:44.385Z,61.39
2018-02-20T06:44:14.066Z,63.20
2018-02-20T06:46:42.980Z,63.68
2018-02-20T06:49:11.541Z,62.99
2018-02-20T06:51:40.096Z,63.20
2018-02-20T06:54:09.468Z,61.49
2018-02-20T06:56:38.038Z,62.53
2018-02-20T06:59:06.620Z,62.60
2018-02-20T07:01:35.372Z,62.43
2018-02-20T07:04:03.933Z,61.64
2018-02-20T07:06:32.506Z,61.06
2018-02-20T07:09:02.073Z,60.74
2018-02-20T07:11:30.633Z,61.44
2018-02-20T07:13:59.214Z,62.31
2018-02-20T07:16:27.827Z,62.34
2018-02-20T07:18:56.382Z,62.22
2018-02-20T07:21:24.934Z,62.48
2018-02-20T07:23:54.701Z,62.74
2018-02-20T07:26:23.257Z,63.59
2018-02-20T07:28:51.822Z,62.43
2018-02-20T07:31:20.696Z,61.85
2018-02-20T07:33:50.012Z,62.33
2018-02-20T07:36:18.572Z,62.67
2018-02-20T07:38:47.957Z,64.33
2018-02-20T07:41:16.525Z,63.57
2018-02-20T07:43:45.088Z,65.03
2018-02-20T07:46:13.897Z,64.19
2018-02-20T07:48:42.448Z,63.57
2018-02-20T07:51:11.006Z,63.37
2018-02-20T07:53:40.568Z,62.42
2018-02-20T07:56:09.128Z,61.63
2018-02-20T07:58:37.681Z,62.31
2018-02-20T08:01:07.052Z,61.36
2018-02-20T08:03:35.618Z,62.04
2018-02-20T08:06:04.172Z,62.54
2018-02-20T08:08:32.999Z,61.74
2018-02-20T08:11:01.582Z,61.81
2018-02-20T08:13:30.144Z,61.66
2018-02-20T08:15:59.155Z,61.64
2018-02-20T08:18:27.715Z,62.23
2018-02-20T08:20:56.273Z,61.84
2018-02-20T08:23:24.882Z,61.50
2018-02-20T08:25:53.445Z,60.82
2018-02-20T08:28:21.993Z,61.71
2018-02-20T08:30:51.384Z,61.95
2018-02-20T08:33:19.950Z,61.30
2018-02-20T08:35:48.505Z,61.14
2018-02-20T08:38:17.114Z,61.80
2018-02-20T08:40:46.470Z,62.56
2018-02-20T08:43:15.031Z,62.69
2018-02-20T08:45:44.813Z,61.64
2018-02-20T08:48:13.387Z,61.31
2018-02-20T08:50:41.948Z,61.45
2018-02-20T08:53:10.565Z,61.59
2018-02-20T08:55:39.135Z,62.36
2018-02-20T08:58:07.760Z,60.94
2018-02-20T09:00:36.721Z,61.04
2018-02-20T09:03:05.273Z,60.37
2018-02-20T09:05:33.837Z,61.65
2018-02-20T09:08:03.215Z,61.78
2018-02-20T09:10:31.791Z,62.90
2018-02-20T09:13:00.357Z,62.38
2018-02-20T09:15:29.020Z,63.44
2018-02-20T09:17:57.586Z,63.63
2018-02-20T09:20:26.155Z,63.56
2018-02-20T09:22:55.536Z,64.30
2018-02-20T09:25:24.093Z,64.04
2018-02-20T09:27:52.657Z,65.31
2018-02-20T09:30:21.269Z,64.85
2018-02-20T09:32:49.832Z,65.35
2018-02-20T09:35:18.396Z,64.95
2018-02-20T09:37:47.228Z,64.34
2018-02-20T09:40:15.843Z,64.30
2018-02-20T09:42:45.164Z,65.08
2018-02-20T09:45:14.098Z,65.23
2018-02-20T09:47:43.441Z,65.67
2018-02-20T09:50:12.009Z,64.99
2018-02-20T09:52:41.405Z,65.54
2018-02-20T09:55:11.476Z,64.87
2018-02-20T09:57:40.035Z,65.77
2018-02-20T10:00:08.817Z,65.80
2018-02-20T10:02:38.180Z,66.36
2018-02-20T10:05:06.735Z,66.54
2018-02-20T10:07:36.117Z,65.78
2018-02-20T10:10:05.519Z,65.71
2018-02-20T10:12:34.092Z,65.35
2018-02-20T10:15:03.473Z,65.53
2018-02-20T10:17:32.042Z,66.38
2018-02-20T10:20:00.614Z,65.62
2018-02-20T10:22:29.221Z,65.21
2018-02-20T10:24:57.795Z,65.99
2018-02-20T10:27:26.366Z,64.94
2018-02-20T10:29:54.993Z,65.23
2018-02-20T10:32:24.396Z,64.26
2018-02-20T10:34:53.787Z,64.04
2018-02-20T10:37:23.164Z,63.85
2018-02-20T10:39:51.736Z,64.02
2018-02-20T10:42:20.303Z,64.65
2018-02-20T10:44:48.921Z,64.59
2018-02-20T10:47:17.485Z,62.56
2018-02-20T10:49:46.040Z,62.61
2018-02-20T10:52:15.146Z,63.00
2018-02-20T10:54:43.772Z,62.83
2018-02-20T10:57:12.337Z,62.86
2018-02-20T10:59:40.965Z,63.11
2018-02-20T11:02:10.282Z,62.71
2018-02-20T11:04:38.838Z,62.39
2018-02-20T11:07:07.545Z,61.81
2018-02-20T11:09:36.108Z,63.85
2018-02-20T11:12:04.674Z,64.68
2018-02-20T11:14:34.231Z,64.33
2018-02-20T11:17:03.634Z,62.58
2018-02-20T11:19:32.185Z,63.10
2018-02-20T11:22:00.781Z,62.99
2018-02-20T11:24:29.336Z,63.00
2018-02-20T11:26:58.697Z,61.66
2018-02-20T11:29:27.474Z,62.21
2018-02-20T11:31:56.021Z,62.95
2018-02-20T11:34:24.585Z,63.75
2018-02-20T11:36:53.970Z,62.67
2018-02-20T11:39:23.299Z,62.55
2018-02-20T11:41:51.847Z,63.33
2018-02-20T11:44:20.454Z,63.57
2018-02-20T11:46:49.797Z,63.59
2018-02-20T11:49:18.344Z,62.32
2018-02-20T11:51:47.715Z,62.65
2018-02-20T11:54:16.273Z,62.95
2018-02-20T11:56:44.825Z,64.13
2018-02-20T11:59:13.644Z,63.61
2018-02-20T12:01:42.189Z,63.80
2018-02-20T12:04:10.745Z,64.51
2018-02-20T12:06:39.441Z,65.77
2018-02-20T12:09:08.759Z,64.52
2018-02-20T12:11:37.306Z,64.63
2018-02-20T12:14:05.913Z,64.25
2018-02-20T12:16:35.241Z,65.35
2018-02-20T12:19:03.800Z,65.23
2018-02-20T12:21:33.232Z,64.71
2018-02-20T12:24:01.784Z,63.65
2018-02-20T12:26:31.108Z,63.72
2018-02-20T12:28:59.925Z,63.72
2018-02-20T12:31:28.852Z,63.32
2018-02-20T12:33:58.168Z,63.94
2018-02-20T12:36:27.542Z,65.86
2018-02-20T12:38:56.100Z,66.04
2018-02-20T12:41:24.657Z,66.58
2018-02-20T12:43:53.392Z,65.57
2018-02-20T12:46:21.972Z,65.44
2018-02-20T12:48:50.544Z,65.37
2018-02-20T12:51:19.149Z,64.24
2018-02-20T12:53:47.714Z,65.33
2018-02-20T12:56:16.268Z,63.73
2018-02-20T12:58:44.884Z,62.75
2018-02-20T13:01:13.434Z,63.01
2018-02-20T13:03:42.041Z,63.48
2018-02-20T13:06:11.452Z,63.18
2018-02-20T13:08:40.009Z,63.33
2018-02-20T13:11:08.562Z,62.87
2018-02-20T13:13:37.165Z,63.64
2018-02-20T14:07:14.419Z,63.24
2018-02-20T14:09:42.983Z,63.00
2018-02-20T14:12:11.528Z,62.75
2018-02-20T14:14:40.354Z,62.83
2018-02-20T14:17:08.904Z,62.32
2018-02-20T14:19:37.461Z,63.00
2018-02-20T14:22:06.067Z,62.50
2018-02-20T14:24:34.648Z,62.75
2018-02-20T14:27:03.968Z,62.48
2018-02-20T14:29:32.795Z,62.03
2018-02-20T14:32:01.346Z,62.17
2018-02-20T14:34:29.901Z,63.10
2018-02-20T14:36:59.413Z,63.07
2018-02-20T14:39:27.966Z,62.32
2018-02-20T14:41:56.513Z,62.44
2018-02-20T14:44:25.257Z,61.61
2018-02-20T14:46:53.813Z,62.15
2018-02-20T14:49:23.133Z,61.24
2018-02-20T14:51:51.825Z,61.25
2018-02-20T14:54:20.372Z,61.69
2018-02-20T14:56:48.976Z,60.15
2018-02-20T14:59:17.744Z,60.02
2018-02-20T15:01:47.072Z,59.09
2018-02-20T15:04:15.692Z,59.46
2018-02-20T15:06:44.301Z,59.22
2018-02-20T15:09:12.864Z,58.50
2018-02-20T15:11:41.420Z,58.96
2018-02-20T15:14:10.229Z,58.38
2018-02-20T15:16:38.789Z,58.84
2018-02-20T15:19:07.341Z,58.64
2018-02-20T15:21:36.706Z,58.73
2018-02-20T15:24:05.364Z,59.01
2018-02-20T15:26:33.926Z,59.66
2018-02-20T15:29:02.857Z,59.21
2018-02-20T15:31:31.416Z,59.14
2018-02-20T15:33:59.977Z,59.22
2018-02-20T15:36:28.585Z,59.96
2018-02-20T15:38:57.147Z,60.09
2018-02-20T15:41:25.718Z,59.34
2018-02-20T15:43:54.568Z,59.86
2018-02-20T15:46:23.945Z,60.54
2018-02-20T15:48:52.508Z,61.00
2018-02-20T15:51:21.328Z,60.92
2018-02-20T15:53:49.928Z,61.75
2018-02-20T15:56:18.481Z,62.53
2018-02-20T15:58:47.390Z,62.02
2018-02-20T16:01:15.960Z,60.71
2018-02-20T16:03:44.837Z,60.79
2018-02-20T16:06:13.638Z,60.50
2018-02-20T16:08:42.196Z,61.07
2018-02-20T16:11:10.762Z,62.44
2018-02-20T16:13:39.407Z,63.02
2018-02-20T16:16:11.937Z,61.30
2018-02-20T16:18:40.858Z,60.55
2018-02-20T16:21:09.425Z,61.27
2018-02-20T16:23:38.021Z,64.21
2018-02-20T16:26:06.644Z,65.36
2018-02-20T16:28:35.208Z,63.38
2018-02-20T16:31:04.534Z,62.00
2018-02-20T16:33:33.351Z,66.22
2018-02-20T16:36:02.196Z,65.64
2018-02-20T16:38:30.755Z,65.74
2018-02-20T16:40:59.700Z,64.87
2018-02-20T16:43:29.025Z,64.71
2018-02-20T16:45:58.525Z,62.55
2018-02-20T16:48:27.151Z,63.43
2018-02-20T16:50:55.722Z,62.97
2018-02-20T16:53:24.278Z,63.31
2018-02-20T16:55:52.926Z,62.65
2018-02-20T16:58:22.258Z,63.20
2018-02-20T17:00:50.821Z,63.45
2018-02-20T17:03:20.383Z,63.41
2018-02-20T17:05:48.945Z,64.31
2018-02-20T17:08:17.521Z,65.30
2018-02-20T17:10:46.343Z,65.33
2018-02-20T17:13:14.940Z,64.91
2018-02-20T17:15:43.510Z,65.75
2018-02-20T17:18:12.195Z,65.51
2018-02-20T17:20:40.771Z,65.11
2018-02-20T17:23:10.226Z,63.94
2018-02-20T17:25:39.600Z,65.35
2018-02-20T17:28:08.941Z,66.70
2018-02-20T17:30:37.522Z,67.67
2018-02-20T17:33:06.369Z,65.63
2018-02-20T17:35:34.945Z,65.10
2018-02-20T17:38:03.518Z,65.42
2018-02-20T17:40:32.131Z,66.05
2018-02-20T17:43:00.709Z,65.28
2018-02-20T17:45:29.293Z,65.11
2018-02-20T17:47:57.914Z,65.06
2018-02-20T17:50:26.533Z,66.13
2018-02-20T17:52:55.104Z,66.81
2018-02-20T17:55:23.723Z,66.21
2018-02-20T17:57:52.313Z,66.14
2018-02-20T18:00:20.881Z,66.76
2018-02-20T18:02:49.895Z,66.35
2018-02-20T18:05:19.234Z,66.19
2018-02-20T18:07:47.813Z,66.95
2018-02-20T18:10:16.452Z,66.33
2018-02-20T18:12:45.018Z,66.62
2018-02-20T18:15:13.585Z,67.20
2018-02-20T18:17:42.197Z,67.13
2018-02-20T18:20:10.762Z,67.37
2018-02-20T18:22:39.727Z,67.34
2018-02-20T18:25:08.372Z,67.09
2018-02-20T18:27:38.441Z,67.11
2018-02-20T18:30:07.021Z,67.07
2018-02-20T18:32:35.630Z,67.45
2018-02-20T18:35:04.217Z,67.59
2018-02-20T18:37:32.799Z,66.75
2018-02-20T18:40:01.570Z,67.30
2018-02-20T18:42:30.137Z,65.85
2018-02-20T18:44:58.704Z,64.91
2018-02-20T18:47:27.941Z,65.40
2018-02-20T18:49:56.520Z,65.54
2018-02-20T18:52:25.124Z,64.34
2018-02-20T18:54:54.459Z,64.73
2018-02-20T18:57:23.785Z,64.70
2018-02-20T18:59:53.099Z,64.33
2018-02-20T19:02:21.710Z,62.94
2018-02-20T19:04:50.265Z,63.07
2018-02-20T19:07:18.822Z,63.07
2018-02-20T19:09:48.284Z,63.80
2018-02-20T19:12:18.530Z,63.17
2018-02-20T19:14:47.869Z,63.13
2018-02-20T19:17:17.615Z,64.80
2018-02-20T19:19:46.944Z,64.27
2018-02-20T19:22:15.505Z,64.02
2018-02-20T19:24:44.483Z,63.60
2018-02-20T19:27:13.039Z,64.53
2018-02-20T19:29:41.661Z,63.78
2018-02-20T19:32:11.028Z,63.71
2018-02-20T19:34:39.608Z,64.25
2018-02-20T19:37:08.180Z,63.53
2018-02-20T19:39:36.785Z,64.03
2018-02-20T19:42:05.353Z,63.50
2018-02-20T19:44:33.936Z,63.64
2018-02-20T19:47:02.638Z,63.42
2018-02-20T19:49:31.200Z,63.90
2018-02-20T19:52:00.524Z,62.99
2018-02-20T19:54:29.505Z,63.42
2018-02-20T19:56:58.068Z,63.71
2018-02-20T19:59:26.625Z,63.88
2018-02-20T20:01:55.236Z,63.75
2018-02-20T20:04:24.569Z,63.47
2018-02-20T20:06:53.157Z,63.09
2018-02-20T20:09:21.765Z,64.29
2018-02-20T20:11:50.321Z,64.36
2018-02-20T20:14:19.245Z,64.41
2018-02-20T20:16:47.845Z,63.29
2018-02-20T20:19:17.244Z,63.71
2018-02-20T20:21:45.809Z,62.96
2018-02-20T20:24:15.211Z,63.52
2018-02-20T20:26:43.769Z,62.48
2018-02-20T20:29:12.333Z,63.52
2018-02-20T20:31:41.165Z,63.23
2018-02-20T20:34:09.720Z,64.01
2018-02-20T20:36:38.277Z,63.54
2018-02-20T20:39:07.837Z,63.68
2018-02-20T20:41:36.425Z,63.58
2018-02-20T20:44:04.986Z,63.12
2018-02-20T20:46:33.689Z,63.38
2018-02-20T20:49:02.241Z,63.29
2018-02-20T20:51:30.808Z,63.05
2018-02-20T20:54:00.360Z,62.48
2018-02-20T20:56:28.917Z,63.17
2018-02-20T20:58:57.469Z,63.49
2018-02-20T21:01:27.248Z,61.84
2018-02-20T21:03:55.816Z,62.79
2018-02-20T21:06:24.371Z,62.87
2018-02-20T21:08:52.988Z,61.91
2018-02-20T21:11:21.548Z,62.12
2018-02-20T21:13:50.100Z,62.61
2018-02-20T21:16:19.672Z,61.81
2018-02-20T21:18:48.261Z,62.70
2018-02-20T21:21:16.828Z,62.70
2018-02-20T21:23:47.257Z,62.87
2018-02-20T21:26:16.746Z,63.04
2018-02-20T21:28:45.302Z,62.74
2018-02-20T21:31:14.669Z,62.78
2018-02-20T21:33:43.226Z,63.50
2018-02-20T21:36:11.776Z,63.72
2018-02-20T21:38:40.521Z,64.52
2018-02-20T21:41:09.105Z,64.45
2018-02-20T21:43:37.665Z,63.88
2018-02-20T21:46:06.264Z,63.22
2018-02-20T21:48:34.828Z,64.07
2018-02-20T21:51:03.381Z,63.16
2018-02-20T21:53:32.075Z,63.74
2018-02-20T21:56:00.621Z,63.28
2018-02-20T21:58:29.936Z,62.66
2018-02-20T22:00:59.313Z,62.74
2018-02-20T22:03:28.637Z,62.55
2018-02-20T22:05:57.957Z,62.34
2018-02-20T22:08:26.697Z,62.90
2018-02-20T22:10:55.260Z,63.31
2018-02-20T22:13:24.741Z,63.33
2018-02-20T22:15:53.356Z,63.02
2018-02-20T22:18:22.678Z,63.54
2018-02-20T22:20:51.253Z,64.30
2018-02-20T22:23:19.870Z,63.54
2018-02-20T22:25:48.421Z,63.11
2018-02-20T22:28:16.981Z,62.79
2018-02-20T22:30:45.583Z,63.44
2018-02-20T22:33:14.144Z,63.41
2018-02-20T22:35:42.700Z,64.28
2018-02-20T22:38:11.308Z,63.14
2018-02-20T22:40:39.864Z,63.43
2018-02-20T22:43:08.411Z,63.74
2018-02-20T22:45:37.792Z,62.85
2018-02-20T22:48:06.341Z,63.91
2018-02-20T22:50:34.897Z,63.86
2018-02-20T22:53:03.640Z,62.85
2018-02-20T22:55:32.197Z,63.25
2018-02-20T22:58:00.744Z,63.33
2018-02-20T23:00:30.109Z,63.29
2018-02-20T23:02:58.657Z,63.47
2018-02-20T23:05:27.210Z,64.15
2018-02-20T23:07:56.581Z,64.21
2018-02-20T23:10:25.136Z,64.03
2018-02-20T23:12:53.685Z,64.10
2018-02-20T23:15:22.442Z,64.60
2018-02-20T23:17:50.996Z,63.79
2018-02-20T23:20:19.549Z,63.32
2018-02-20T23:22:48.318Z,63.38
2018-02-20T23:25:17.636Z,65.33
2018-02-20T23:27:46.180Z,64.32
2018-02-20T23:30:14.861Z,64.93
2018-02-20T23:32:43.422Z,66.43
2018-02-20T23:35:11.977Z,65.57
2018-02-20T23:37:40.857Z,64.97
2018-02-20T23:40:09.415Z,65.02
2018-02-20T23:42:38.740Z,65.86
2018-02-20T23:45:07.365Z,65.27
2018-02-20T23:47:35.924Z,64.57
2018-02-20T23:50:04.470Z,65.85
2018-02-20T23:52:33.924Z,65.01
2018-02-20T23:55:02.484Z,65.42
2018-02-20T23:57:31.033Z,64.71
2018-02-20T23:59:59.884Z,64.48
